createdAt,value
2019-05-18T00:00:23.433Z,77.00
2019-05-18T00:01:23.437Z,77.28
2019-05-18T00:02:23.384Z,77.37
2019-05-18T00:03:23.406Z,77.47
2019-05-18T00:04:23.359Z,77.28
2019-05-18T00:05:23.339Z,77.28
2019-05-18T00:06:23.329Z,77.43
2019-05-18T00:07:23.304Z,77.34
2019-05-18T00:08:23.294Z,77.24
2019-05-18T00:09:23.279Z,77.05
2019-05-18T00:10:23.259Z,78.10
2019-05-18T00:11:23.246Z,77.91
2019-05-18T00:12:23.223Z,77.72
2019-05-18T00:13:23.226Z,77.81
2019-05-18T00:14:23.223Z,77.91
2019-05-18T00:15:23.179Z,77.72
2019-05-18T00:16:23.187Z,77.81
2019-05-18T00:17:25.196Z,78.00
2019-05-18T00:18:23.174Z,77.91
2019-05-18T00:19:23.128Z,77.91
2019-05-18T00:20:23.099Z,78.57
2019-05-18T00:21:23.079Z,78.19
2019-05-18T00:22:23.184Z,78.10
2019-05-18T00:23:23.215Z,77.91
2019-05-18T00:24:23.126Z,78.00
2019-05-18T00:25:23.336Z,78.57
2019-05-18T00:26:23.124Z,78.38
2019-05-18T00:27:23.235Z,78.44
2019-05-18T00:28:23.089Z,78.06
2019-05-18T00:29:23.115Z,78.53
2019-05-18T00:30:23.038Z,78.63
2019-05-18T00:31:22.970Z,78.63
2019-05-18T00:32:22.982Z,78.44
2019-05-18T00:33:22.906Z,79.01
2019-05-18T00:34:22.911Z,78.53
2019-05-18T00:35:22.889Z,78.53
2019-05-18T00:36:32.504Z,78.44
2019-05-18T00:38:17.226Z,79.20
2019-05-18T00:39:17.252Z,79.20
2019-05-18T00:41:11.662Z,79.11
2019-05-18T00:42:11.595Z,79.11
2019-05-18T00:44:17.035Z,79.39
2019-05-18T00:45:17.063Z,79.39
2019-05-18T00:47:22.531Z,79.20
2019-05-18T00:48:22.406Z,79.11
2019-05-18T00:50:28.847Z,79.49
2019-05-18T00:51:28.849Z,79.20
2019-05-18T00:53:34.333Z,79.58
2019-05-18T00:54:34.248Z,79.68
2019-05-18T00:55:34.222Z,79.39
2019-05-18T00:56:34.222Z,79.30
2019-05-18T00:57:34.200Z,79.68
2019-05-18T00:58:34.190Z,79.68
2019-05-18T00:59:34.178Z,79.49
2019-05-18T01:00:34.154Z,79.49
2019-05-18T01:01:34.168Z,79.58
2019-05-18T01:02:34.131Z,79.39
2019-05-18T01:03:34.117Z,79.39
2019-05-18T01:04:34.113Z,79.11
2019-05-18T01:05:34.083Z,79.39
2019-05-18T01:06:34.046Z,79.30
2019-05-18T01:07:34.063Z,79.68
2019-05-18T01:08:34.006Z,79.58
2019-05-18T01:09:33.994Z,79.96
2019-05-18T01:10:33.972Z,80.44
2019-05-18T01:11:33.966Z,80.53
2019-05-18T01:12:33.939Z,80.53
2019-05-18T01:13:33.922Z,80.44
2019-05-18T01:14:33.915Z,80.34
2019-05-18T01:15:33.890Z,79.96
2019-05-18T01:16:33.881Z,80.15
2019-05-18T01:17:33.879Z,80.24
2019-05-18T01:18:33.843Z,80.24
2019-05-18T01:19:33.833Z,80.05
2019-05-18T01:20:33.908Z,80.44
2019-05-18T01:21:33.821Z,80.53
2019-05-18T01:22:33.769Z,80.53
2019-05-18T01:23:33.758Z,80.63
2019-05-18T01:24:33.740Z,80.72
2019-05-18T01:25:33.721Z,80.82
2019-05-18T01:26:33.703Z,80.91
2019-05-18T01:27:33.701Z,80.91
2019-05-18T01:28:33.683Z,80.91
2019-05-18T01:29:33.663Z,80.95
2019-05-18T01:30:33.672Z,80.95
2019-05-18T01:31:33.620Z,80.95
2019-05-18T01:32:34.540Z,80.86
2019-05-18T01:33:33.586Z,81.05
2019-05-18T01:34:33.585Z,80.86
2019-05-18T01:35:33.585Z,80.95
2019-05-18T01:36:33.557Z,80.95
2019-05-18T01:37:33.694Z,80.95
2019-05-18T01:38:33.682Z,80.86
2019-05-18T01:39:33.799Z,80.57
2019-05-18T01:40:33.876Z,80.86
2019-05-18T01:41:33.700Z,81.05
2019-05-18T01:42:36.467Z,81.14
2019-05-18T01:43:35.516Z,81.05
2019-05-18T01:44:34.420Z,81.01
2019-05-18T01:45:34.632Z,81.05
2019-05-18T01:46:33.710Z,81.24
2019-05-18T01:47:34.107Z,81.14
2019-05-18T01:48:35.646Z,81.43
2019-05-18T01:49:33.445Z,81.52
2019-05-18T01:50:34.123Z,81.24
2019-05-18T01:51:33.287Z,81.33
2019-05-18T01:52:33.268Z,81.43
2019-05-18T01:53:33.272Z,81.52
2019-05-18T01:54:33.235Z,81.33
2019-05-18T01:55:33.221Z,81.52
2019-05-18T01:56:33.202Z,81.52
2019-05-18T01:57:33.202Z,81.33
2019-05-18T01:58:33.192Z,81.33
2019-05-18T01:59:33.166Z,81.43
2019-05-18T02:00:33.135Z,81.14
2019-05-18T02:01:33.135Z,81.52
2019-05-18T02:02:33.114Z,81.81
2019-05-18T02:03:33.129Z,81.52
2019-05-18T02:04:33.071Z,81.71
2019-05-18T02:05:33.066Z,81.81
2019-05-18T02:06:33.073Z,81.90
2019-05-18T02:07:33.027Z,81.90
2019-05-18T02:08:33.016Z,81.71
2019-05-18T02:09:33.010Z,81.85
2019-05-18T02:10:33.094Z,81.56
2019-05-18T02:11:33.236Z,81.95
2019-05-18T02:12:33.388Z,82.14
2019-05-18T02:13:33.213Z,81.85
2019-05-18T02:14:33.367Z,82.23
2019-05-18T02:15:33.211Z,81.85
2019-05-18T02:16:33.154Z,82.32
2019-05-18T02:17:33.048Z,81.95
2019-05-18T02:18:33.061Z,82.14
2019-05-18T02:19:33.270Z,81.95
2019-05-18T02:20:33.080Z,82.14
2019-05-18T02:21:33.148Z,82.14
2019-05-18T02:22:33.153Z,81.85
2019-05-18T02:23:33.138Z,81.95
2019-05-18T02:24:33.239Z,81.56
2019-05-18T02:25:33.299Z,81.56
2019-05-18T02:26:33.091Z,81.95
2019-05-18T02:27:33.039Z,81.76
2019-05-18T02:28:33.479Z,81.95
2019-05-18T02:29:33.052Z,82.23
2019-05-18T02:30:32.943Z,82.09
2019-05-18T02:31:32.779Z,82.42
2019-05-18T02:32:32.758Z,82.23
2019-05-18T02:33:32.695Z,81.95
2019-05-18T02:34:32.607Z,82.14
2019-05-18T02:35:32.591Z,82.42
2019-05-18T02:36:32.640Z,82.14
2019-05-18T02:37:32.905Z,82.14
2019-05-18T02:38:32.521Z,82.42
2019-05-18T02:39:32.526Z,82.04
2019-05-18T02:40:32.493Z,82.04
2019-05-18T02:41:32.513Z,82.14
2019-05-18T02:42:32.515Z,82.14
2019-05-18T02:43:32.450Z,82.14
2019-05-18T02:44:32.454Z,82.14
2019-05-18T02:45:32.454Z,82.61
2019-05-18T02:46:32.400Z,82.61
2019-05-18T02:47:32.418Z,82.23
2019-05-18T02:48:47.783Z,82.14
2019-05-18T02:49:32.391Z,82.42
2019-05-18T02:50:32.541Z,82.23
2019-05-18T02:51:32.376Z,82.23
2019-05-18T02:52:32.310Z,82.32
2019-05-18T02:53:32.284Z,82.23
2019-05-18T02:54:32.390Z,82.23
2019-05-18T02:55:32.422Z,82.42
2019-05-18T02:56:32.393Z,82.42
2019-05-18T02:57:32.519Z,82.23
2019-05-18T02:58:32.375Z,82.51
2019-05-18T02:59:32.523Z,82.61
2019-05-18T03:00:32.358Z,82.61
2019-05-18T03:01:32.159Z,82.14
2019-05-18T03:02:32.203Z,82.42
2019-05-18T03:03:32.412Z,82.32
2019-05-18T03:04:32.280Z,82.42
2019-05-18T03:05:32.269Z,82.42
2019-05-18T03:06:32.241Z,82.42
2019-05-18T03:07:32.272Z,82.42
2019-05-18T03:08:32.375Z,82.14
2019-05-18T03:09:32.702Z,82.42
2019-05-18T03:10:32.215Z,82.42
2019-05-18T03:11:32.424Z,82.42
2019-05-18T03:12:32.405Z,82.42
2019-05-18T03:13:32.412Z,82.23
2019-05-18T03:14:32.132Z,82.23
2019-05-18T03:15:33.081Z,82.27
2019-05-18T03:16:32.343Z,82.37
2019-05-18T03:17:32.122Z,82.14
2019-05-18T03:18:32.178Z,82.18
2019-05-18T03:19:31.862Z,82.27
2019-05-18T03:20:31.846Z,82.18
2019-05-18T03:21:31.827Z,82.18
2019-05-18T03:22:31.801Z,82.18
2019-05-18T03:23:31.785Z,82.18
2019-05-18T03:24:31.773Z,82.27
2019-05-18T03:25:31.758Z,82.37
2019-05-18T03:26:31.750Z,82.93
2019-05-18T03:27:31.713Z,82.93
2019-05-18T03:28:31.694Z,82.84
2019-05-18T03:29:31.703Z,82.27
2019-05-18T03:30:31.669Z,83.03
2019-05-18T03:31:31.649Z,82.84
2019-05-18T03:32:31.630Z,82.93
2019-05-18T03:33:31.636Z,82.84
2019-05-18T03:34:31.611Z,83.13
2019-05-18T03:35:31.621Z,83.13
2019-05-18T03:36:31.602Z,83.13
2019-05-18T03:37:31.548Z,82.93
2019-05-18T03:38:31.554Z,82.84
2019-05-18T03:39:31.516Z,82.84
2019-05-18T03:40:31.511Z,82.65
2019-05-18T03:41:31.484Z,82.84
2019-05-18T03:42:31.499Z,82.84
2019-05-18T03:43:31.451Z,83.32
2019-05-18T03:44:31.464Z,83.32
2019-05-18T03:45:31.451Z,83.03
2019-05-18T03:46:31.406Z,83.22
2019-05-18T03:47:31.396Z,83.22
2019-05-18T03:48:31.398Z,83.22
2019-05-18T03:49:31.356Z,83.03
2019-05-18T03:50:31.481Z,83.03
2019-05-18T03:53:21.002Z,83.13
2019-05-18T03:54:20.923Z,83.13
2019-05-18T03:55:20.843Z,83.32
2019-05-18T03:56:20.905Z,83.03
2019-05-18T03:57:20.835Z,83.32
2019-05-18T03:58:20.715Z,83.61
2019-05-18T03:59:20.738Z,83.61
2019-05-18T04:00:20.691Z,83.51
2019-05-18T04:01:20.734Z,83.41
2019-05-18T04:02:20.650Z,83.41
2019-05-18T04:03:20.632Z,83.51
2019-05-18T04:04:20.574Z,83.61
2019-05-18T04:05:20.577Z,83.80
2019-05-18T04:06:20.582Z,83.80
2019-05-18T04:07:20.534Z,83.51
2019-05-18T04:08:20.541Z,83.80
2019-05-18T04:09:20.516Z,83.70
2019-05-18T04:10:20.482Z,83.61
2019-05-18T04:11:20.463Z,83.70
2019-05-18T04:12:20.465Z,83.61
2019-05-18T04:13:20.431Z,83.61
2019-05-18T04:14:20.417Z,83.80
2019-05-18T04:15:20.424Z,83.89
2019-05-18T04:16:20.422Z,83.61
2019-05-18T04:17:20.412Z,83.80
2019-05-18T04:18:20.352Z,83.61
2019-05-18T04:19:20.372Z,83.84
2019-05-18T04:20:20.354Z,83.55
2019-05-18T04:21:20.340Z,83.84
2019-05-18T04:22:20.303Z,83.84
2019-05-18T04:23:20.303Z,83.74
2019-05-18T04:24:20.257Z,83.74
2019-05-18T04:25:20.243Z,83.45
2019-05-18T04:26:22.297Z,83.84
2019-05-18T04:27:20.211Z,83.84
2019-05-18T04:28:20.187Z,83.74
2019-05-18T04:29:20.193Z,83.74
2019-05-18T04:30:20.166Z,83.55
2019-05-18T04:31:20.186Z,84.22
2019-05-18T04:32:20.136Z,83.65
2019-05-18T04:33:20.133Z,83.55
2019-05-18T04:34:20.121Z,83.55
2019-05-18T04:35:20.244Z,83.55
2019-05-18T04:36:20.079Z,84.03
2019-05-18T04:37:20.076Z,84.03
2019-05-18T04:38:20.089Z,83.65
2019-05-18T04:39:20.023Z,84.03
2019-05-18T04:40:20.002Z,84.07
2019-05-18T04:41:19.992Z,83.59
2019-05-18T04:42:20.009Z,84.16
2019-05-18T04:43:19.955Z,83.59
2019-05-18T04:44:19.980Z,83.50
2019-05-18T04:45:19.927Z,83.78
2019-05-18T04:46:19.912Z,83.40
2019-05-18T04:47:19.917Z,83.50
2019-05-18T04:48:19.886Z,83.88
2019-05-18T04:49:19.861Z,83.69
2019-05-18T04:50:19.840Z,83.50
2019-05-18T04:51:19.842Z,83.50
2019-05-18T04:52:19.818Z,83.69
2019-05-18T04:53:19.803Z,83.69
2019-05-18T04:54:19.788Z,83.59
2019-05-18T04:55:19.772Z,83.78
2019-05-18T04:56:19.753Z,83.59
2019-05-18T05:04:08.283Z,83.69
2019-05-18T05:05:08.221Z,83.59
2019-05-18T05:32:47.753Z,82.57
2019-05-18T05:33:47.654Z,82.29
2019-05-18T05:34:47.620Z,82.48
2019-05-18T05:35:47.573Z,82.67
2019-05-18T05:36:47.587Z,82.76
2019-05-18T05:37:47.538Z,82.67
2019-05-18T05:38:47.528Z,82.48
2019-05-18T05:39:47.503Z,82.38
2019-05-18T05:40:47.495Z,82.48
2019-05-18T05:41:47.479Z,82.00
2019-05-18T05:42:47.463Z,82.52
2019-05-18T05:43:47.446Z,82.52
2019-05-18T05:44:47.440Z,82.42
2019-05-18T05:45:47.424Z,82.52
2019-05-18T05:46:47.405Z,82.23
2019-05-18T05:47:47.398Z,82.14
2019-05-18T05:48:47.378Z,82.14
2019-05-18T05:49:47.366Z,82.23
2019-05-18T05:50:47.349Z,82.08
2019-05-18T05:51:47.328Z,82.08
2019-05-18T05:52:47.331Z,81.89
2019-05-18T05:53:47.308Z,81.89
2019-05-18T05:54:47.290Z,81.51
2019-05-18T05:55:47.279Z,81.22
2019-05-18T05:56:47.261Z,81.36
2019-05-18T05:57:47.244Z,81.36
2019-05-18T05:58:47.228Z,81.07
2019-05-18T05:59:47.222Z,80.98
2019-05-18T06:00:47.204Z,80.88
2019-05-18T06:01:47.193Z,80.59
2019-05-18T06:02:47.203Z,80.69
2019-05-18T06:03:47.168Z,79.87
2019-05-18T06:04:47.151Z,79.73
2019-05-18T06:05:47.135Z,79.77
2019-05-18T06:06:47.165Z,80.06
2019-05-18T06:07:47.105Z,79.96
2019-05-18T06:08:47.144Z,79.87
2019-05-18T06:09:47.087Z,79.77
2019-05-18T06:10:47.062Z,79.68
2019-05-18T06:11:47.073Z,79.87
2019-05-18T06:12:47.140Z,79.87
2019-05-18T06:13:47.024Z,80.06
2019-05-18T06:14:47.020Z,79.87
2019-05-18T06:15:47.010Z,79.96
2019-05-18T06:16:46.998Z,80.35
2019-05-18T06:17:46.966Z,80.35
2019-05-18T06:18:46.968Z,79.49
2019-05-18T06:19:46.948Z,79.39
2019-05-18T06:20:51.638Z,79.87
2019-05-18T06:21:46.932Z,79.77
2019-05-18T06:22:46.914Z,80.00
2019-05-18T06:23:46.902Z,79.87
2019-05-18T06:24:46.878Z,80.10
2019-05-18T06:25:46.868Z,79.72
2019-05-18T06:26:46.851Z,79.81
2019-05-18T06:27:46.860Z,79.85
2019-05-18T06:28:46.846Z,79.18
2019-05-18T06:29:46.956Z,78.89
2019-05-18T06:30:46.811Z,78.61
2019-05-18T06:31:46.793Z,78.80
2019-05-18T06:32:47.080Z,78.17
2019-05-18T06:33:46.929Z,78.17
2019-05-18T06:34:46.756Z,77.88
2019-05-18T06:35:46.737Z,77.69
2019-05-18T06:36:46.721Z,77.88
2019-05-18T06:37:46.711Z,77.73
2019-05-18T06:38:46.700Z,77.34
2019-05-18T06:39:46.686Z,77.06
2019-05-18T06:40:46.698Z,76.86
2019-05-18T06:41:46.661Z,76.71
2019-05-18T06:42:46.657Z,75.85
2019-05-18T06:43:46.638Z,75.56
2019-05-18T06:44:46.624Z,75.56
2019-05-18T06:45:46.628Z,75.46
2019-05-18T06:46:46.610Z,75.08
2019-05-18T06:47:48.499Z,74.93
2019-05-18T06:48:46.606Z,74.73
2019-05-18T06:49:46.568Z,74.93
2019-05-18T06:50:46.564Z,74.93
2019-05-18T06:51:46.550Z,74.48
2019-05-18T06:52:46.559Z,74.96
2019-05-18T06:53:46.533Z,74.29
2019-05-18T06:54:46.513Z,73.72
2019-05-18T06:55:46.504Z,73.56
2019-05-18T06:56:46.503Z,73.27
2019-05-18T06:57:46.503Z,72.50
2019-05-18T06:58:46.502Z,72.31
2019-05-18T06:59:46.488Z,71.77
2019-05-18T07:00:46.780Z,71.77
2019-05-18T07:01:46.448Z,71.29
2019-05-18T07:02:46.437Z,71.19
2019-05-18T07:03:46.420Z,71.29
2019-05-18T07:04:46.450Z,70.33
2019-05-18T07:05:46.410Z,70.14
2019-05-18T07:06:46.392Z,70.07
2019-05-18T07:07:46.412Z,69.79
2019-05-18T07:08:46.378Z,69.69
2019-05-18T07:09:46.367Z,68.73
2019-05-18T07:10:46.452Z,68.63
2019-05-18T07:11:46.358Z,68.25
2019-05-18T07:12:46.334Z,68.44
2019-05-18T07:13:46.356Z,68.06
2019-05-18T07:14:46.317Z,67.58
2019-05-18T07:15:46.314Z,67.48
2019-05-18T07:16:46.327Z,67.58
2019-05-18T07:17:46.302Z,67.68
2019-05-18T07:18:46.300Z,67.58
2019-05-18T07:19:46.307Z,67.58
2019-05-18T07:20:46.262Z,67.48
2019-05-18T07:21:46.287Z,66.91
2019-05-18T07:22:46.248Z,67.29
2019-05-18T07:23:46.251Z,66.81
2019-05-18T07:24:46.217Z,66.81
2019-05-18T07:25:46.236Z,66.91
2019-05-18T07:26:46.237Z,66.61
2019-05-18T07:27:46.212Z,66.91
2019-05-18T07:28:46.185Z,66.81
2019-05-18T07:29:46.179Z,66.42
2019-05-18T07:30:46.167Z,66.61
2019-05-18T07:31:46.157Z,66.42
2019-05-18T07:32:46.145Z,66.33
2019-05-18T07:33:46.153Z,66.23
2019-05-18T07:34:46.121Z,66.33
2019-05-18T07:35:46.115Z,65.94
2019-05-18T07:36:46.109Z,65.46
2019-05-18T07:37:46.094Z,65.53
2019-05-18T07:38:46.082Z,65.53
2019-05-18T07:39:46.076Z,65.37
2019-05-18T07:40:46.065Z,65.72
2019-05-18T07:41:47.213Z,65.72
2019-05-18T07:42:46.049Z,65.62
2019-05-18T07:43:46.034Z,65.81
2019-05-18T07:44:46.026Z,65.91
2019-05-18T07:45:46.022Z,65.72
2019-05-18T07:46:45.999Z,65.53
2019-05-18T07:47:46.005Z,65.23
2019-05-18T07:48:46.047Z,65.53
2019-05-18T07:49:45.973Z,65.05
2019-05-18T07:50:45.960Z,64.95
2019-05-18T07:51:45.994Z,65.27
2019-05-18T07:52:45.938Z,64.31
2019-05-18T07:53:45.936Z,64.50
2019-05-18T07:54:45.924Z,64.56
2019-05-18T07:55:45.912Z,64.76
2019-05-18T07:56:45.901Z,64.47
2019-05-18T07:57:45.888Z,64.37
2019-05-18T07:58:45.881Z,63.60
2019-05-18T07:59:45.874Z,63.70
2019-05-18T08:00:45.885Z,63.70
2019-05-18T08:01:45.852Z,63.99
2019-05-18T08:02:45.838Z,63.89
2019-05-18T08:03:45.835Z,63.99
2019-05-18T08:04:45.826Z,63.70
2019-05-18T08:05:45.812Z,63.32
2019-05-18T08:06:45.798Z,63.41
2019-05-18T08:07:45.786Z,63.22
2019-05-18T08:08:45.797Z,63.22
2019-05-18T08:09:45.761Z,62.84
2019-05-18T08:10:45.771Z,62.84
2019-05-18T08:11:45.748Z,63.02
2019-05-18T08:12:45.741Z,62.45
2019-05-18T08:13:45.723Z,62.87
2019-05-18T08:14:45.708Z,62.35
2019-05-18T08:15:45.700Z,62.10
2019-05-18T08:16:45.691Z,62.29
2019-05-18T08:17:45.714Z,61.91
2019-05-18T08:18:45.672Z,62.10
2019-05-18T08:19:46.633Z,61.81
2019-05-18T08:20:45.673Z,61.46
2019-05-18T08:21:53.289Z,61.46
2019-05-18T08:22:45.628Z,60.91
2019-05-18T08:23:45.636Z,60.46
2019-05-18T08:24:45.612Z,60.46
2019-05-18T08:25:45.603Z,60.00
2019-05-18T08:26:45.597Z,59.65
2019-05-18T08:27:45.587Z,59.68
2019-05-18T08:28:45.583Z,59.03
2019-05-18T08:29:45.601Z,58.36
2019-05-18T08:30:45.570Z,58.10
2019-05-18T08:31:45.552Z,57.84
2019-05-18T08:32:45.545Z,57.09
2019-05-18T08:33:45.544Z,56.41
2019-05-18T08:34:45.532Z,55.96
2019-05-18T08:35:45.537Z,55.79
2019-05-18T08:36:45.528Z,55.31
2019-05-18T08:37:45.522Z,54.27
2019-05-18T08:38:45.515Z,53.79
2019-05-18T08:39:45.545Z,53.63
2019-05-18T08:40:45.501Z,53.23
2019-05-18T08:41:48.593Z,52.29
2019-05-18T08:42:45.563Z,52.39
2019-05-18T08:43:45.484Z,51.32
2019-05-18T08:44:45.485Z,51.04
2019-05-18T08:45:45.479Z,50.84
2019-05-18T08:46:45.484Z,51.13
2019-05-18T08:47:45.474Z,51.62
2019-05-18T08:48:45.468Z,50.87
2019-05-18T08:49:45.468Z,50.67
2019-05-18T08:50:45.467Z,50.67
2019-05-18T08:51:45.457Z,50.12
2019-05-18T08:52:45.445Z,49.07
2019-05-18T08:53:45.441Z,48.59
2019-05-18T08:54:45.443Z,48.32
2019-05-18T08:55:45.449Z,47.86
2019-05-18T08:56:45.433Z,47.47
2019-05-18T08:57:45.428Z,46.60
2019-05-18T08:58:45.447Z,46.79
2019-05-18T08:59:45.439Z,46.79
2019-05-18T09:00:45.425Z,46.41
2019-05-18T09:01:45.419Z,46.01
2019-05-18T09:02:45.422Z,46.41
2019-05-18T09:03:45.410Z,46.31
2019-05-18T09:04:45.421Z,46.31
2019-05-18T09:05:45.414Z,46.21
2019-05-18T09:06:45.401Z,45.92
2019-05-18T09:07:45.397Z,45.53
2019-05-18T09:08:45.394Z,44.95
2019-05-18T09:09:45.388Z,44.75
2019-05-18T09:10:45.384Z,44.27
2019-05-18T09:11:45.387Z,44.09
2019-05-18T09:12:45.390Z,43.80
2019-05-18T09:13:45.375Z,44.51
2019-05-18T09:14:45.387Z,44.14
2019-05-18T09:15:45.374Z,43.16
2019-05-18T09:16:45.369Z,42.97
2019-05-18T09:17:45.363Z,42.78
2019-05-18T09:18:45.362Z,42.49
2019-05-18T09:19:45.376Z,42.60
2019-05-18T09:20:45.357Z,42.21
2019-05-18T09:21:45.360Z,41.53
2019-05-18T09:22:45.352Z,41.44
2019-05-18T09:23:45.367Z,40.95
2019-05-18T09:24:45.359Z,41.24
2019-05-18T09:25:45.345Z,41.53
2019-05-18T09:26:45.341Z,41.14
2019-05-18T09:27:45.354Z,40.95
2019-05-18T09:28:45.336Z,40.75
2019-05-18T09:29:45.344Z,40.56
2019-05-18T09:30:45.337Z,40.93
2019-05-18T09:31:45.334Z,40.93
2019-05-18T09:32:45.333Z,40.72
2019-05-18T09:33:45.318Z,40.62
2019-05-18T09:34:45.324Z,41.47
2019-05-18T09:35:45.333Z,41.28
2019-05-18T09:36:45.316Z,41.64
2019-05-18T09:37:45.311Z,41.45
2019-05-18T09:38:45.317Z,42.30
2019-05-18T09:39:45.308Z,42.21
2019-05-18T09:40:45.299Z,42.30
2019-05-18T09:41:45.295Z,42.29
2019-05-18T09:42:45.292Z,42.77
2019-05-18T09:43:45.282Z,42.57
2019-05-18T09:44:45.302Z,42.67
2019-05-18T09:45:45.276Z,42.57
2019-05-18T09:46:45.276Z,42.38
2019-05-18T09:47:45.282Z,42.29
2019-05-18T09:48:45.267Z,42.29
2019-05-18T09:49:45.262Z,42.38
2019-05-18T09:50:45.251Z,42.19
2019-05-18T09:51:45.268Z,42.67
2019-05-18T09:52:46.390Z,42.26
2019-05-18T09:53:51.549Z,42.55
2019-05-18T09:54:45.265Z,42.17
2019-05-18T09:55:45.234Z,42.26
2019-05-18T09:56:45.228Z,42.65
2019-05-18T09:57:45.247Z,42.26
2019-05-18T09:58:45.215Z,42.17
2019-05-18T09:59:45.239Z,42.19
2019-05-18T10:00:45.204Z,42.38
2019-05-18T10:01:45.237Z,42.38
2019-05-18T10:02:45.205Z,41.89
2019-05-18T10:03:45.214Z,41.53
2019-05-18T10:04:45.191Z,41.53
2019-05-18T10:05:45.192Z,41.26
2019-05-18T10:06:45.184Z,41.26
2019-05-18T10:07:45.179Z,41.45
2019-05-18T10:08:45.182Z,40.79
2019-05-18T10:09:45.174Z,40.69
2019-05-18T10:10:45.174Z,40.31
2019-05-18T10:11:45.170Z,40.13
2019-05-18T10:12:45.165Z,40.06
2019-05-18T10:13:45.159Z,39.47
2019-05-18T10:14:45.162Z,39.10
2019-05-18T10:15:45.148Z,38.83
2019-05-18T10:16:45.144Z,38.46
2019-05-18T10:17:45.145Z,37.70
2019-05-18T10:18:45.152Z,37.02
2019-05-18T10:19:45.137Z,37.04
2019-05-18T10:20:45.222Z,37.25
2019-05-18T10:21:45.160Z,36.88
2019-05-18T10:22:53.834Z,36.58
2019-05-18T10:23:45.125Z,36.21
2019-05-18T10:24:45.137Z,36.43
2019-05-18T10:25:45.122Z,36.04
2019-05-18T10:26:45.123Z,35.19
2019-05-18T10:27:45.121Z,34.70
2019-05-18T10:28:45.440Z,34.70
2019-05-18T10:29:46.759Z,34.72
2019-05-18T10:30:45.114Z,34.52
2019-05-18T10:31:45.111Z,34.52
2019-05-18T10:32:45.123Z,34.54
2019-05-18T10:33:45.123Z,34.64
2019-05-18T10:34:45.119Z,33.77
2019-05-18T10:35:45.113Z,33.28
2019-05-18T10:36:45.114Z,33.38
2019-05-18T10:37:45.124Z,32.99
2019-05-18T10:38:45.154Z,33.18
2019-05-18T10:39:45.113Z,32.42
2019-05-18T10:40:45.374Z,32.40
2019-05-18T10:41:45.111Z,32.50
2019-05-18T10:42:45.112Z,32.70
2019-05-18T10:43:46.979Z,32.51
2019-05-18T10:44:45.104Z,32.42
2019-05-18T10:45:45.468Z,32.61
2019-05-18T10:46:45.131Z,32.43
2019-05-18T10:47:45.117Z,32.25
2019-05-18T10:48:45.105Z,31.86
2019-05-18T10:49:45.172Z,31.27
2019-05-18T10:50:45.105Z,30.88
2019-05-18T10:51:45.107Z,31.06
2019-05-18T10:52:45.108Z,30.96
2019-05-18T10:53:45.117Z,31.06
2019-05-18T10:54:45.107Z,31.16
2019-05-18T10:55:45.123Z,30.96
2019-05-18T10:56:45.113Z,30.77
2019-05-18T10:57:45.105Z,30.96
2019-05-18T10:58:45.103Z,30.87
2019-05-18T10:59:45.154Z,30.78
2019-05-18T11:00:45.117Z,30.49
2019-05-18T11:01:45.110Z,30.00
2019-05-18T11:02:45.123Z,30.19
2019-05-18T11:03:45.118Z,30.00
2019-05-18T11:04:45.106Z,30.11
2019-05-18T11:05:45.112Z,29.93
2019-05-18T11:06:45.153Z,29.34
2019-05-18T11:07:45.113Z,29.05
2019-05-18T11:08:45.114Z,29.05
2019-05-18T11:09:45.116Z,28.55
2019-05-18T11:10:45.113Z,28.55
2019-05-18T11:11:45.114Z,29.06
2019-05-18T11:12:45.122Z,29.16
2019-05-18T11:13:45.111Z,28.67
2019-05-18T11:14:45.135Z,28.67
2019-05-18T11:15:45.121Z,28.86
2019-05-18T11:16:45.130Z,28.77
2019-05-18T11:17:45.124Z,28.27
2019-05-18T11:18:45.129Z,28.57
2019-05-18T11:19:45.134Z,28.47
2019-05-18T11:20:45.129Z,28.47
2019-05-18T11:21:45.126Z,28.27
2019-05-18T11:22:45.133Z,28.37
2019-05-18T11:23:47.987Z,28.36
2019-05-18T11:24:45.150Z,28.17
2019-05-18T11:25:45.138Z,28.27
2019-05-18T11:26:45.129Z,28.27
2019-05-18T11:27:45.137Z,27.99
2019-05-18T11:28:45.149Z,27.50
2019-05-18T11:29:45.139Z,27.31
2019-05-18T11:30:45.136Z,27.31
2019-05-18T11:31:45.154Z,27.31
2019-05-18T11:32:45.162Z,27.60
2019-05-18T11:33:45.156Z,27.50
2019-05-18T11:34:45.143Z,27.32
2019-05-18T11:35:45.172Z,27.61
2019-05-18T11:36:45.151Z,27.82
2019-05-18T11:37:45.160Z,27.23
2019-05-18T11:38:45.198Z,27.34
2019-05-18T11:39:45.159Z,27.15
2019-05-18T11:40:45.157Z,27.25
2019-05-18T11:41:45.160Z,27.25
2019-05-18T11:42:45.163Z,27.14
2019-05-18T11:43:45.170Z,27.43
2019-05-18T11:44:45.189Z,27.43
2019-05-18T11:45:45.172Z,26.93
2019-05-18T11:46:45.179Z,27.14
2019-05-18T11:47:45.190Z,27.14
2019-05-18T11:48:45.201Z,27.31
2019-05-18T11:49:45.198Z,27.20
2019-05-18T11:50:45.191Z,27.39
2019-05-18T11:51:45.195Z,27.20
2019-05-18T11:52:45.203Z,27.70
2019-05-18T11:53:57.504Z,27.40
2019-05-18T11:54:45.201Z,27.20
2019-05-18T11:55:45.216Z,26.73
2019-05-18T11:56:45.220Z,26.92
2019-05-18T11:57:45.213Z,26.74
2019-05-18T11:58:45.225Z,26.93
2019-05-18T11:59:45.260Z,26.53
2019-05-18T12:00:45.288Z,26.62
2019-05-18T12:01:45.230Z,26.91
2019-05-18T12:02:45.305Z,27.00
2019-05-18T12:03:45.236Z,27.00
2019-05-18T12:04:48.572Z,27.29
2019-05-18T12:05:45.245Z,27.00
2019-05-18T12:06:45.249Z,26.61
2019-05-18T12:07:45.251Z,26.90
2019-05-18T12:08:45.255Z,27.09
2019-05-18T12:09:45.253Z,26.91
2019-05-18T12:10:45.266Z,26.42
2019-05-18T12:11:45.266Z,26.04
2019-05-18T12:12:45.269Z,26.24
2019-05-18T12:13:45.284Z,25.84
2019-05-18T12:14:45.286Z,26.03
2019-05-18T12:15:45.283Z,26.03
2019-05-18T12:16:45.302Z,26.11
2019-05-18T12:17:45.293Z,26.69
2019-05-18T12:18:45.307Z,26.59
2019-05-18T12:19:45.299Z,27.17
2019-05-18T12:20:45.314Z,27.26
2019-05-18T12:21:45.302Z,27.46
2019-05-18T12:22:45.314Z,27.26
2019-05-18T12:23:45.315Z,27.17
2019-05-18T12:24:45.326Z,27.36
2019-05-18T12:25:45.311Z,27.17
2019-05-18T12:26:45.315Z,27.17
2019-05-18T12:27:45.335Z,27.17
2019-05-18T12:28:45.335Z,27.18
2019-05-18T12:29:45.338Z,27.08
2019-05-18T12:30:45.343Z,26.69
2019-05-18T12:31:45.337Z,26.90
2019-05-18T12:32:45.369Z,26.32
2019-05-18T12:33:45.352Z,26.23
2019-05-18T12:34:45.571Z,26.12
2019-05-18T12:35:45.358Z,26.03
2019-05-18T12:36:45.361Z,25.93
2019-05-18T12:37:45.376Z,26.14
2019-05-18T12:38:45.377Z,26.24
2019-05-18T12:39:45.382Z,26.34
2019-05-18T12:40:45.385Z,26.24
2019-05-18T12:41:45.389Z,26.14
2019-05-18T12:42:45.401Z,26.72
2019-05-18T12:43:45.396Z,26.82
2019-05-18T12:44:45.403Z,26.64
2019-05-18T12:45:45.420Z,26.05
2019-05-18T12:46:45.436Z,25.87
2019-05-18T12:47:45.424Z,25.57
2019-05-18T12:48:45.426Z,25.67
2019-05-18T12:49:45.436Z,25.67
2019-05-18T12:50:45.439Z,25.66
2019-05-18T12:51:45.446Z,25.56
2019-05-18T12:52:45.454Z,25.63
2019-05-18T12:53:45.459Z,26.10
2019-05-18T12:54:46.953Z,26.56
2019-05-18T12:55:45.478Z,26.96
2019-05-18T12:56:45.479Z,26.86
2019-05-18T12:57:45.483Z,26.65
2019-05-18T12:58:45.487Z,27.03
2019-05-18T12:59:45.500Z,27.21
2019-05-18T13:00:45.503Z,27.29
2019-05-18T13:01:45.495Z,27.48
2019-05-18T13:02:45.497Z,27.56
2019-05-18T13:03:45.500Z,27.75
2019-05-18T13:04:45.493Z,28.13
2019-05-18T13:05:45.498Z,28.11
2019-05-18T13:06:45.509Z,28.67
2019-05-18T13:07:45.495Z,28.94
2019-05-18T13:08:45.510Z,29.33
2019-05-18T13:09:45.504Z,29.79
2019-05-18T13:10:45.497Z,30.28
2019-05-18T13:11:45.497Z,30.47
2019-05-18T13:12:45.499Z,30.65
2019-05-18T13:13:45.504Z,30.85
2019-05-18T13:14:45.499Z,30.85
2019-05-18T13:15:45.506Z,31.13
2019-05-18T13:16:45.493Z,30.93
2019-05-18T13:17:45.505Z,31.32
2019-05-18T13:18:45.525Z,31.29
2019-05-18T13:19:45.490Z,32.05
2019-05-18T13:20:45.496Z,32.32
2019-05-18T13:21:45.501Z,32.91
2019-05-18T13:22:45.484Z,33.28
2019-05-18T13:23:45.477Z,32.99
2019-05-18T13:24:45.841Z,33.38
2019-05-18T13:25:45.469Z,33.65
2019-05-18T13:26:45.466Z,33.65
2019-05-18T13:27:45.463Z,34.23
2019-05-18T13:28:45.474Z,34.23
2019-05-18T13:29:45.454Z,34.41
2019-05-18T13:30:45.452Z,34.80
2019-05-18T13:31:45.463Z,34.80
2019-05-18T13:32:45.446Z,34.51
2019-05-18T13:33:45.444Z,34.61